createdAt,value
2022-09-13T00:01:01.441Z,3.53
2022-09-13T00:03:29.575Z,3.63
2022-09-13T00:05:57.432Z,3.40
2022-09-13T00:08:25.010Z,3.97
2022-09-13T00:10:52.542Z,7.20
2022-09-13T00:13:21.405Z,3.67
2022-09-13T00:15:50.114Z,3.40
2022-09-13T00:18:18.180Z,3.33
2022-09-13T00:20:45.841Z,3.10
2022-09-13T00:23:13.477Z,2.97
2022-09-13T00:25:41.102Z,4.17
2022-09-13T00:28:09.006Z,3.23
2022-09-13T00:30:37.882Z,3.97
2022-09-13T00:33:05.384Z,3.30
2022-09-13T00:35:32.928Z,3.60
2022-09-13T00:38:00.916Z,3.50
2022-09-13T00:40:30.279Z,3.10
2022-09-13T00:42:57.858Z,3.30
2022-09-13T00:45:25.399Z,3.23
2022-09-13T00:47:56.743Z,3.37
2022-09-13T00:50:26.331Z,3.20
2022-09-13T00:52:56.287Z,3.37
2022-09-13T00:55:25.417Z,3.80
2022-09-13T00:57:53.593Z,3.60
2022-09-13T01:00:22.095Z,3.50
2022-09-13T01:02:50.949Z,5.40
2022-09-13T01:05:21.794Z,3.33
2022-09-13T01:07:49.382Z,3.33
2022-09-13T01:10:17.149Z,3.33
2022-09-13T01:12:48.294Z,2.70
2022-09-13T01:15:16.050Z,3.00
2022-09-13T01:17:44.408Z,3.00
2022-09-13T01:20:12.524Z,2.83
2022-09-13T01:23:00.171Z,2.80
2022-09-13T01:25:45.926Z,2.87
2022-09-13T01:28:26.352Z,3.43
2022-09-13T01:31:00.319Z,3.10
2022-09-13T01:33:36.047Z,2.73
2022-09-13T01:36:15.758Z,2.90
2022-09-13T01:38:51.220Z,2.80
2022-09-13T01:41:24.811Z,3.10
2022-09-13T01:43:55.296Z,3.00
2022-09-13T01:46:26.435Z,2.87
2022-09-13T01:48:56.631Z,2.90
2022-09-13T01:51:27.623Z,3.47
2022-09-13T01:53:59.162Z,3.40
2022-09-13T01:56:28.926Z,3.07
2022-09-13T01:58:58.278Z,3.23
2022-09-13T02:01:29.279Z,2.90
2022-09-13T02:03:59.295Z,3.50
2022-09-13T02:06:29.355Z,3.53
2022-09-13T02:08:58.783Z,3.10
2022-09-13T02:11:27.024Z,3.70
2022-09-13T02:13:57.487Z,3.30
2022-09-13T02:16:29.501Z,3.20
2022-09-13T02:18:59.950Z,4.60
2022-09-13T02:21:30.073Z,3.20
2022-09-13T02:24:01.727Z,4.13
2022-09-13T02:26:30.350Z,3.20
2022-09-13T02:28:59.278Z,3.30
2022-09-13T02:31:30.927Z,3.07
2022-09-13T02:34:01.469Z,3.20
2022-09-13T02:36:30.539Z,3.43
2022-09-13T02:39:01.058Z,3.30
2022-09-13T02:41:36.040Z,3.07
2022-09-13T02:44:06.223Z,3.20
2022-09-13T02:46:40.783Z,3.60
2022-09-13T02:49:14.100Z,3.47
2022-09-13T02:51:46.164Z,3.70
2022-09-13T02:54:18.939Z,3.20
2022-09-13T02:56:50.894Z,3.30
2022-09-13T02:59:20.421Z,3.27
2022-09-13T03:01:50.733Z,3.10
2022-09-13T03:04:18.448Z,4.37
2022-09-13T03:06:46.083Z,3.60
2022-09-13T03:09:13.726Z,3.63
2022-09-13T03:11:54.271Z,3.60
2022-09-13T03:14:27.004Z,3.27
2022-09-13T03:17:04.575Z,4.33
2022-09-13T03:19:40.425Z,3.10
2022-09-13T03:22:16.908Z,3.13
2022-09-13T03:24:49.123Z,3.27
2022-09-13T03:27:20.374Z,3.47
2022-09-13T03:29:53.294Z,3.40
2022-09-13T03:32:25.340Z,2.87
2022-09-13T03:34:54.731Z,3.70
2022-09-13T03:37:25.827Z,3.20
2022-09-13T03:39:56.263Z,2.93
2022-09-13T03:42:25.211Z,3.53
2022-09-13T03:44:54.243Z,2.90
2022-09-13T03:47:24.804Z,2.70
2022-09-13T03:49:52.787Z,3.37
2022-09-13T03:52:20.616Z,2.80
2022-09-13T03:54:48.404Z,3.10
2022-09-13T03:57:17.079Z,3.10
2022-09-13T03:59:47.163Z,3.13
2022-09-13T04:02:15.088Z,2.90
2022-09-13T04:04:44.574Z,3.10
2022-09-13T04:07:13.168Z,2.67
2022-09-13T04:09:40.670Z,4.17
2022-09-13T04:12:09.895Z,2.90
2022-09-13T04:14:37.438Z,2.93
2022-09-13T04:17:05.034Z,3.07
2022-09-13T04:19:32.575Z,2.73
2022-09-13T04:22:01.436Z,4.93
2022-09-13T04:24:29.459Z,2.60
2022-09-13T04:26:57.279Z,2.73
2022-09-13T04:29:25.609Z,2.80
2022-09-13T04:31:54.145Z,3.00
2022-09-13T04:34:22.915Z,2.73
2022-09-13T04:36:50.891Z,2.80
2022-09-13T04:39:19.967Z,3.20
2022-09-13T04:41:48.615Z,3.30
2022-09-13T04:44:16.832Z,2.80
2022-09-13T04:46:44.595Z,3.07
2022-09-13T04:49:12.263Z,3.00
2022-09-13T04:51:39.760Z,3.80
2022-09-13T04:54:09.943Z,3.57
2022-09-13T04:56:40.888Z,3.37
2022-09-13T04:59:08.423Z,5.77
2022-09-13T05:01:36.050Z,3.60
2022-09-13T05:04:04.032Z,3.63
2022-09-13T05:06:31.587Z,3.60
2022-09-13T05:08:59.078Z,4.13
2022-09-13T05:11:27.508Z,4.10
2022-09-13T05:13:57.134Z,3.83
2022-09-13T05:16:25.476Z,3.80
2022-09-13T05:18:53.421Z,4.00
2022-09-13T05:21:21.455Z,3.87
2022-09-13T05:23:49.806Z,3.97
2022-09-13T05:26:17.470Z,4.03
2022-09-13T05:28:45.278Z,3.83
2022-09-13T05:31:17.072Z,4.17
2022-09-13T05:33:45.282Z,3.70
2022-09-13T05:36:12.928Z,5.30
2022-09-13T05:38:40.433Z,4.07
2022-09-13T05:41:07.945Z,3.80
2022-09-13T05:43:36.520Z,4.37
2022-09-13T05:46:05.310Z,3.83
2022-09-13T05:48:35.054Z,4.13
2022-09-13T05:51:06.958Z,4.37
2022-09-13T05:53:34.760Z,4.07
2022-09-13T05:56:02.423Z,4.13
2022-09-13T05:58:29.986Z,4.60
2022-09-13T06:00:57.852Z,4.00
2022-09-13T06:03:25.573Z,4.70
2022-09-13T06:05:57.135Z,4.87
2022-09-13T06:08:24.719Z,3.87
2022-09-13T06:10:56.205Z,6.50
2022-09-13T06:13:23.741Z,4.40
2022-09-13T06:15:51.299Z,3.70
2022-09-13T06:18:19.193Z,4.00
2022-09-13T06:20:46.768Z,3.73
2022-09-13T06:23:15.674Z,3.53
2022-09-13T06:25:43.459Z,4.20
2022-09-13T06:28:11.075Z,3.80
2022-09-13T06:30:38.571Z,4.00
2022-09-13T06:33:06.086Z,4.07
2022-09-13T06:35:33.630Z,5.57
2022-09-13T06:38:01.308Z,4.13
2022-09-13T06:40:30.341Z,3.77
2022-09-13T06:42:57.924Z,3.87
2022-09-13T06:45:25.760Z,3.83
2022-09-13T06:47:54.963Z,3.53
2022-09-13T06:50:22.603Z,3.70
2022-09-13T06:52:50.091Z,4.03
2022-09-13T06:55:17.687Z,4.20
2022-09-13T06:57:46.551Z,3.93
2022-09-13T07:00:14.659Z,3.97
2022-09-13T07:02:42.179Z,3.97
2022-09-13T07:05:10.821Z,3.77
2022-09-13T07:07:38.347Z,4.03
2022-09-13T07:10:06.325Z,3.83
2022-09-13T07:12:33.814Z,4.17
2022-09-13T07:15:02.680Z,4.00
2022-09-13T07:17:31.610Z,4.17
2022-09-13T07:19:59.241Z,3.60
2022-09-13T07:22:27.847Z,4.23
2022-09-13T07:24:55.347Z,6.37
2022-09-13T07:27:22.863Z,6.13
2022-09-13T07:29:50.356Z,5.30
2022-09-13T07:32:19.625Z,5.17
2022-09-13T07:34:47.140Z,5.60
2022-09-13T07:37:14.643Z,5.37
2022-09-13T07:39:42.212Z,5.60
2022-09-13T07:42:09.770Z,5.80
2022-09-13T07:44:37.971Z,5.50
2022-09-13T07:47:07.503Z,5.00
2022-09-13T07:49:36.399Z,5.30
2022-09-13T07:52:03.912Z,4.77
2022-09-13T07:54:31.427Z,4.50
2022-09-13T07:56:58.923Z,4.63
2022-09-13T07:59:30.019Z,4.30
2022-09-13T08:01:57.957Z,3.93
2022-09-13T08:04:26.321Z,3.93
2022-09-13T08:06:55.800Z,4.03
2022-09-13T08:09:23.331Z,3.37
2022-09-13T08:11:52.691Z,4.13
2022-09-13T08:14:20.711Z,3.33
2022-09-13T08:16:48.267Z,6.17
2022-09-13T08:19:16.731Z,2.90
2022-09-13T08:21:44.282Z,2.80
2022-09-13T08:24:15.859Z,3.10
2022-09-13T08:26:43.616Z,3.07
2022-09-13T08:29:12.510Z,3.40
2022-09-13T08:31:40.038Z,4.17
2022-09-13T08:34:08.524Z,3.40
2022-09-13T08:36:36.730Z,3.90
2022-09-13T08:39:04.402Z,4.07
2022-09-13T08:41:52.829Z,4.40
2022-09-13T08:44:26.839Z,3.43
2022-09-13T08:46:56.579Z,4.67
2022-09-13T08:49:26.085Z,3.27
2022-09-13T08:51:55.483Z,4.33
2022-09-13T08:54:23.106Z,3.30
2022-09-13T08:56:53.392Z,4.90
2022-09-13T08:59:30.308Z,5.35
2022-09-13T09:02:04.245Z,5.50
2022-09-13T09:04:36.114Z,4.50
2022-09-13T09:07:06.110Z,3.93
2022-09-13T09:09:37.128Z,3.70
2022-09-13T09:12:11.974Z,3.77
2022-09-13T09:14:44.259Z,5.67
2022-09-13T09:17:15.395Z,4.23
2022-09-13T09:19:44.673Z,3.83
2022-09-13T09:22:14.730Z,3.67
2022-09-13T09:24:46.537Z,3.83
2022-09-13T09:27:15.364Z,4.47
2022-09-13T09:29:45.000Z,4.70
2022-09-13T09:32:19.143Z,4.33
2022-09-13T09:34:53.170Z,4.40
2022-09-13T09:37:22.091Z,4.60
2022-09-13T09:39:50.847Z,3.87
2022-09-13T09:42:21.244Z,4.50
2022-09-13T09:44:52.254Z,4.37
2022-09-13T09:47:23.937Z,4.37
2022-09-13T09:50:16.146Z,4.47
2022-09-13T09:52:45.563Z,4.50
2022-09-13T09:55:16.822Z,4.13
2022-09-13T09:57:50.564Z,4.70
2022-09-13T10:00:20.447Z,4.50
2022-09-13T10:02:49.157Z,4.17
2022-09-13T10:05:19.714Z,4.63
2022-09-13T10:07:54.186Z,4.23
2022-09-13T10:10:24.375Z,4.57
2022-09-13T10:12:53.480Z,4.17
2022-09-13T10:15:23.497Z,4.20
2022-09-13T10:18:13.464Z,4.00
2022-09-13T10:21:03.343Z,3.87
2022-09-13T10:23:31.599Z,3.40
2022-09-13T10:26:02.360Z,3.13
2022-09-13T10:28:30.934Z,3.10
2022-09-13T10:31:01.845Z,3.10
2022-09-13T10:33:30.991Z,3.87
2022-09-13T10:35:59.412Z,3.37
2022-09-13T10:38:28.779Z,3.10
2022-09-13T10:40:56.360Z,2.73
2022-09-13T10:43:25.111Z,2.87
2022-09-13T10:45:52.810Z,5.23
2022-09-13T10:48:21.987Z,3.00
2022-09-13T10:51:02.143Z,2.70
2022-09-13T10:53:37.731Z,2.80
2022-09-13T10:56:05.854Z,2.93
2022-09-13T10:58:33.428Z,2.60
2022-09-13T11:01:24.665Z,2.40
2022-09-13T11:04:13.280Z,2.50
2022-09-13T11:06:45.234Z,2.57
2022-09-13T11:09:14.667Z,2.40
2022-09-13T11:11:45.684Z,2.30
2022-09-13T11:14:19.780Z,2.67
2022-09-13T11:16:52.793Z,2.00
2022-09-13T11:19:37.467Z,2.53
2022-09-13T11:22:14.895Z,2.40
2022-09-13T11:24:46.958Z,2.50
2022-09-13T11:27:17.897Z,3.00
2022-09-13T11:29:53.863Z,2.87
2022-09-13T11:32:29.055Z,2.73
2022-09-13T11:35:04.576Z,2.50
2022-09-13T11:37:41.919Z,2.73
2022-09-13T11:40:28.998Z,2.27
2022-09-13T11:43:00.978Z,2.13
2022-09-13T11:45:29.211Z,2.40
2022-09-13T11:48:05.287Z,2.30
2022-09-13T11:50:37.314Z,2.10
2022-09-13T11:53:14.812Z,2.00
2022-09-13T11:55:44.551Z,2.33
2022-09-13T11:58:14.365Z,2.13
2022-09-13T12:00:43.803Z,2.20
2022-09-13T12:03:15.341Z,2.20
2022-09-13T12:05:45.758Z,2.57
2022-09-13T12:08:17.192Z,2.10
2022-09-13T12:10:46.724Z,1.70
2022-09-13T12:13:17.586Z,1.90
2022-09-13T12:15:47.634Z,3.70
2022-09-13T12:18:17.116Z,1.70
2022-09-13T12:20:48.130Z,1.67
2022-09-13T12:23:20.474Z,1.95
2022-09-13T12:25:51.494Z,1.88
2022-09-13T12:28:22.399Z,2.03
2022-09-13T12:30:53.399Z,1.43
2022-09-13T12:33:21.069Z,1.67
2022-09-13T12:35:52.213Z,1.77
2022-09-13T12:38:36.415Z,1.90
2022-09-13T12:41:08.626Z,2.13
2022-09-13T12:43:54.456Z,1.88
2022-09-13T12:46:43.108Z,2.42
2022-09-13T12:49:22.482Z,1.88
2022-09-13T12:51:58.763Z,1.80
2022-09-13T12:54:37.424Z,1.80
2022-09-13T12:57:11.308Z,1.98
2022-09-13T12:59:48.626Z,1.60
2022-09-13T13:02:25.778Z,1.63
2022-09-13T13:04:54.960Z,1.58
2022-09-13T13:07:23.552Z,1.83
2022-09-13T13:09:53.694Z,5.10
2022-09-13T13:12:30.075Z,1.42
2022-09-13T13:14:58.006Z,1.60
2022-09-13T13:17:42.332Z,1.55
2022-09-13T13:20:28.585Z,1.80
2022-09-13T13:23:05.399Z,1.40
2022-09-13T13:25:38.790Z,1.40
2022-09-13T13:28:21.141Z,1.48
2022-09-13T13:30:53.983Z,1.75
2022-09-13T13:33:27.179Z,1.75
2022-09-13T13:35:54.943Z,1.40
2022-09-13T13:38:49.441Z,1.52
2022-09-13T13:41:35.944Z,1.30
2022-09-13T13:44:24.824Z,2.50
2022-09-13T13:46:53.228Z,1.73
2022-09-13T13:49:46.041Z,1.60
2022-09-13T13:52:32.109Z,1.80
2022-09-13T13:55:00.563Z,2.15
2022-09-13T13:57:29.943Z,1.42
2022-09-13T14:00:05.547Z,1.30
2022-09-13T14:02:43.959Z,1.30
2022-09-13T14:05:14.508Z,1.58
2022-09-13T14:10:46.176Z,4.55
2022-09-13T14:13:20.863Z,3.85
2022-09-13T14:15:55.352Z,2.78
2022-09-13T14:18:31.344Z,1.58
2022-09-13T14:20:59.729Z,4.55
2022-09-13T14:23:28.006Z,1.55
2022-09-13T14:25:56.591Z,1.40
2022-09-13T14:28:24.801Z,1.30
2022-09-13T14:30:58.286Z,1.40
2022-09-13T14:33:31.207Z,1.33
2022-09-13T14:35:59.980Z,1.40
2022-09-13T14:38:33.384Z,1.52
2022-09-13T14:41:02.307Z,1.50
2022-09-13T14:43:30.728Z,1.63
2022-09-13T14:46:03.881Z,1.65
2022-09-13T14:48:33.595Z,1.67
2022-09-13T14:51:03.368Z,1.80
2022-09-13T14:53:32.103Z,1.48
2022-09-13T14:56:01.331Z,1.33
2022-09-13T14:58:30.381Z,1.92
2022-09-13T15:01:00.143Z,2.38
2022-09-13T15:03:29.355Z,1.38
2022-09-13T15:05:57.919Z,1.40
2022-09-13T15:08:43.588Z,2.35
2022-09-13T15:11:14.975Z,2.25
2022-09-13T15:13:43.624Z,2.67
2022-09-13T15:16:27.383Z,2.15
2022-09-13T15:19:09.793Z,1.60
2022-09-13T15:21:38.745Z,2.17
2022-09-13T15:24:06.479Z,1.38
2022-09-13T15:26:33.991Z,1.48
2022-09-13T15:29:04.166Z,4.07
2022-09-13T15:31:32.486Z,1.60
2022-09-13T15:34:12.448Z,1.75
2022-09-13T15:36:41.310Z,1.55
2022-09-13T15:39:16.776Z,1.80
2022-09-13T15:41:52.791Z,2.13
2022-09-13T15:44:20.488Z,3.58
2022-09-13T15:46:48.894Z,2.90
2022-09-13T15:49:17.431Z,3.17
2022-09-13T15:51:46.459Z,2.30
2022-09-13T15:54:14.627Z,4.15
2022-09-13T15:56:42.771Z,1.95
2022-09-13T15:59:12.488Z,2.40
2022-09-13T16:01:40.029Z,2.78
2022-09-13T16:04:07.834Z,1.48
2022-09-13T16:06:35.390Z,2.30
2022-09-13T16:09:06.997Z,2.95
2022-09-13T16:11:34.536Z,2.47
2022-09-13T16:14:02.022Z,2.65
2022-09-13T16:16:29.570Z,2.47
2022-09-13T16:18:57.094Z,2.97
2022-09-13T16:21:24.616Z,2.60
2022-09-13T16:23:52.150Z,3.28
2022-09-13T16:26:21.018Z,3.42
2022-09-13T16:28:48.592Z,2.95
2022-09-13T16:31:16.557Z,4.15
2022-09-13T16:33:44.151Z,2.85
2022-09-13T16:36:12.749Z,2.60
2022-09-13T16:38:40.244Z,3.42
2022-09-13T16:41:07.835Z,3.90
2022-09-13T16:43:36.966Z,2.75
2022-09-13T16:46:06.846Z,4.82
2022-09-13T16:48:34.430Z,2.80
2022-09-13T16:51:04.848Z,2.67
2022-09-13T16:53:32.866Z,2.47
2022-09-13T16:56:06.926Z,2.40
2022-09-13T16:58:38.418Z,1.95
2022-09-13T17:01:06.379Z,2.60
2022-09-13T17:03:35.902Z,2.90
2022-09-13T17:06:04.310Z,3.08
2022-09-13T17:08:33.044Z,5.75
2022-09-13T17:11:00.606Z,2.90
2022-09-13T17:13:28.106Z,2.80
2022-09-13T17:15:56.997Z,4.40
2022-09-13T17:18:24.630Z,2.33
2022-09-13T17:20:52.414Z,3.05
2022-09-13T17:23:19.944Z,2.78
2022-09-13T17:25:48.894Z,2.50
2022-09-13T17:28:17.135Z,2.58
2022-09-13T17:30:46.023Z,2.90
2022-09-13T17:33:15.030Z,4.20
2022-09-13T17:35:43.487Z,3.90
2022-09-13T17:38:11.360Z,3.20
2022-09-13T17:40:38.866Z,3.60
2022-09-13T17:43:06.418Z,4.07
2022-09-13T17:45:33.944Z,2.97
2022-09-13T17:48:01.459Z,3.00
2022-09-13T17:50:30.356Z,3.00
2022-09-13T17:52:59.197Z,3.23
2022-09-13T17:55:27.004Z,3.00
2022-09-13T17:57:55.635Z,4.50
2022-09-13T18:00:23.152Z,3.70
2022-09-13T18:02:50.745Z,3.40
2022-09-13T18:05:18.320Z,4.25
2022-09-13T18:07:48.304Z,4.17
2022-09-13T18:10:38.714Z,4.43
2022-09-13T18:13:03.336Z,4.27
2022-09-13T18:15:30.972Z,4.57
2022-09-13T18:17:58.583Z,4.27
2022-09-13T18:20:26.083Z,5.93
2022-09-13T18:22:54.954Z,6.03
2022-09-13T18:25:23.470Z,4.83
2022-09-13T18:27:51.019Z,5.70
2022-09-13T18:30:18.895Z,5.20
2022-09-13T18:32:46.419Z,4.73
2022-09-13T18:35:14.149Z,4.30
2022-09-13T18:37:41.659Z,3.80
2022-09-13T18:40:13.908Z,3.73
2022-09-13T18:42:45.193Z,3.37
2022-09-13T18:45:12.839Z,3.60
2022-09-13T18:47:40.326Z,3.90
2022-09-13T18:50:11.342Z,3.97
2022-09-13T18:52:39.819Z,3.83
2022-09-13T18:55:07.985Z,3.93
2022-09-13T18:57:36.875Z,3.73
2022-09-13T19:00:04.852Z,3.90
2022-09-13T19:02:32.491Z,3.90
2022-09-13T19:05:01.749Z,3.90
2022-09-13T19:07:30.852Z,4.17
2022-09-13T19:09:58.366Z,3.77
2022-09-13T19:12:25.880Z,4.10
2022-09-13T19:14:54.737Z,4.53
2022-09-13T19:17:22.232Z,4.00
2022-09-13T19:19:49.724Z,5.60
2022-09-13T19:22:17.583Z,4.10
2022-09-13T19:24:45.089Z,3.80
2022-09-13T19:27:13.248Z,4.30
2022-09-13T19:29:40.744Z,4.87
2022-09-13T19:32:09.740Z,4.27
2022-09-13T19:34:37.273Z,4.77
2022-09-13T19:37:04.998Z,5.50
2022-09-13T19:39:32.518Z,4.90
2022-09-13T19:42:00.797Z,4.50
2022-09-13T19:44:28.479Z,4.70
2022-09-13T19:47:23.816Z,3.97
2022-09-13T19:49:44.840Z,4.20
2022-09-13T19:52:12.343Z,3.53
2022-09-13T19:54:39.866Z,3.73
2022-09-13T19:57:09.403Z,4.50
2022-09-13T19:59:36.929Z,3.80
2022-09-13T20:02:05.048Z,3.90
2022-09-13T20:04:32.640Z,3.87
2022-09-13T20:07:01.533Z,4.13
2022-09-13T20:09:29.200Z,3.80
2022-09-13T20:12:00.169Z,3.57
2022-09-13T20:14:27.836Z,3.97
2022-09-13T20:16:55.394Z,3.80
2022-09-13T20:19:40.193Z,3.67
2022-09-13T20:22:09.842Z,3.93
2022-09-13T20:24:37.411Z,3.47
2022-09-13T20:27:05.081Z,4.33
2022-09-13T20:29:32.588Z,3.80
2022-09-13T20:32:00.371Z,3.53
2022-09-13T20:34:28.188Z,3.50
2022-09-13T20:36:55.671Z,3.93
2022-09-13T20:39:24.546Z,3.80
2022-09-13T20:41:52.313Z,4.27
2022-09-13T20:44:19.815Z,4.20
2022-09-13T20:46:47.359Z,4.50
2022-09-13T20:49:14.927Z,4.37
2022-09-13T20:51:43.030Z,9.63
2022-09-13T20:54:12.127Z,4.83
2022-09-13T20:56:40.999Z,7.20
2022-09-13T20:59:08.538Z,4.53
2022-09-13T21:01:36.505Z,3.97
2022-09-13T21:04:04.547Z,4.23
2022-09-13T21:06:36.987Z,4.20
2022-09-13T21:09:03.631Z,5.23
2022-09-13T21:11:33.820Z,4.40
2022-09-13T21:14:03.611Z,5.70
2022-09-13T21:16:33.305Z,4.87
2022-09-13T21:19:01.649Z,4.23
2022-09-13T21:21:30.017Z,4.57
2022-09-13T21:23:57.607Z,4.07
2022-09-13T21:26:26.739Z,4.50
2022-09-13T21:28:54.895Z,4.27
2022-09-13T21:31:24.887Z,4.60
2022-09-13T21:33:55.616Z,4.50
2022-09-13T21:36:23.226Z,3.70
2022-09-13T21:38:51.787Z,6.17
2022-09-13T21:41:19.832Z,4.20
2022-09-13T21:43:47.782Z,5.53
2022-09-13T21:46:17.065Z,6.10
2022-09-13T21:48:46.885Z,4.17
2022-09-13T21:51:16.111Z,5.57
2022-09-13T21:53:44.286Z,4.33
2022-09-13T21:56:12.863Z,4.37
2022-09-13T21:58:40.736Z,6.83
2022-09-13T22:01:09.068Z,3.93
2022-09-13T22:03:37.888Z,5.50
2022-09-13T22:06:07.002Z,4.33
2022-09-13T22:08:35.466Z,4.43
2022-09-13T22:11:07.529Z,4.40
2022-09-13T22:13:35.507Z,4.60
2022-09-13T22:16:07.116Z,5.27
2022-09-13T22:18:34.863Z,4.67
2022-09-13T22:21:07.694Z,4.53
2022-09-13T22:23:35.736Z,6.10
2022-09-13T22:26:05.390Z,4.20
2022-09-13T22:28:32.895Z,4.57
2022-09-13T22:31:05.079Z,4.03
2022-09-13T22:33:33.131Z,4.03
2022-09-13T22:36:01.368Z,4.03
2022-09-13T22:38:31.456Z,4.47
2022-09-13T22:40:59.548Z,4.10
2022-09-13T22:43:27.392Z,3.70
2022-09-13T22:46:01.523Z,4.93
2022-09-13T22:48:29.443Z,4.43
2022-09-13T22:50:57.158Z,4.57
2022-09-13T22:53:25.267Z,4.97
2022-09-13T22:55:54.199Z,4.83
2022-09-13T22:58:21.707Z,4.20
2022-09-13T23:00:49.276Z,4.03
2022-09-13T23:03:16.842Z,3.90
2022-09-13T23:05:51.015Z,4.10
2022-09-13T23:08:18.534Z,3.97
2022-09-13T23:10:46.032Z,3.90
2022-09-13T23:13:14.974Z,3.90
2022-09-13T23:15:42.491Z,3.97
2022-09-13T23:18:10.246Z,3.67
2022-09-13T23:20:38.027Z,3.80
2022-09-13T23:23:05.622Z,3.70
2022-09-13T23:25:33.733Z,4.00
2022-09-13T23:28:01.315Z,4.47
2022-09-13T23:30:30.162Z,5.53
2022-09-13T23:32:57.699Z,5.00
2022-09-13T23:35:25.903Z,4.23
2022-09-13T23:37:53.419Z,4.30
2022-09-13T23:40:22.643Z,4.03
2022-09-13T23:42:50.444Z,4.00
2022-09-13T23:45:17.940Z,4.87
2022-09-13T23:47:46.814Z,4.57
2022-09-13T23:50:14.369Z,5.40
2022-09-13T23:52:41.894Z,4.33
2022-09-13T23:55:09.902Z,4.83
2022-09-13T23:57:37.440Z,4.23
